createdAt,value
2019-04-28T00:02:01.210Z,100491.52
2019-04-28T00:04:33.885Z,100497.37
2019-04-28T00:07:05.793Z,100501.73
2019-04-28T00:09:37.793Z,100503.45
2019-04-28T00:12:11.482Z,100502.80
2019-04-28T00:14:43.508Z,100510.70
2019-04-28T00:17:15.539Z,100516.28
2019-04-28T00:19:47.540Z,100514.92
2019-04-28T00:22:25.537Z,100520.80
2019-04-28T00:25:14.199Z,100518.87
2019-04-28T00:27:45.393Z,100513.61
2019-04-28T00:30:17.377Z,100514.31
2019-04-28T00:32:49.513Z,100515.78
2019-04-28T00:35:23.188Z,100523.06
2019-04-28T00:37:55.258Z,100521.96
2019-04-28T00:40:27.289Z,100520.79
2019-04-28T00:42:58.581Z,100525.04
2019-04-28T00:45:31.386Z,100526.56
2019-04-28T00:48:03.778Z,100527.41
2019-04-28T00:50:35.817Z,100526.42
2019-04-28T00:53:07.229Z,100527.55
2019-04-28T00:55:39.055Z,100520.78
2019-04-28T00:58:11.137Z,100518.89
2019-04-28T01:00:44.781Z,100524.09
2019-04-28T01:03:16.880Z,100524.58
2019-04-28T01:05:50.761Z,100528.42
2019-04-28T01:08:22.628Z,100527.52
2019-04-28T01:10:54.828Z,100531.95
2019-04-28T01:13:26.969Z,100531.83
2019-04-28T01:16:09.429Z,100525.92
2019-04-28T01:18:50.278Z,100531.16
2019-04-28T01:21:25.353Z,100533.75
2019-04-28T01:23:57.538Z,100533.33
2019-04-28T01:26:33.687Z,100531.13
2019-04-28T01:29:09.579Z,100535.08
2019-04-28T01:31:49.448Z,100542.25
2019-04-28T01:34:22.454Z,100553.06
2019-04-28T01:36:54.618Z,100554.48
2019-04-28T01:39:26.693Z,100559.59
2019-04-28T01:41:59.568Z,100560.26
2019-04-28T01:44:35.875Z,100559.35
2019-04-28T01:47:07.221Z,100562.66
2019-04-28T01:49:40.567Z,100567.02
2019-04-28T01:52:17.559Z,100573.23
2019-04-28T01:54:50.484Z,100577.19
2019-04-28T01:57:22.852Z,100579.35
2019-04-28T01:59:54.332Z,100581.47
2019-04-28T02:02:29.975Z,100578.75
2019-04-28T02:05:03.722Z,100583.83
2019-04-28T02:07:35.316Z,100583.80
2019-04-28T02:10:06.952Z,100582.95
2019-04-28T02:12:40.288Z,100586.33
2019-04-28T02:15:12.452Z,100587.17
2019-04-28T02:17:44.428Z,100590.89
2019-04-28T02:20:17.926Z,100589.43
2019-04-28T02:22:55.766Z,100587.31
2019-04-28T02:25:29.809Z,100596.26
2019-04-28T02:28:01.884Z,100587.31
2019-04-28T02:30:45.322Z,100590.31
2019-04-28T02:33:07.426Z,100590.99
2019-04-28T02:35:41.828Z,100594.35
2019-04-28T02:38:13.091Z,100597.41
2019-04-28T02:40:45.097Z,100589.61
2019-04-28T02:43:16.966Z,100592.48
2019-04-28T02:45:52.944Z,100600.36
2019-04-28T02:48:26.347Z,100605.02
2019-04-28T02:51:06.729Z,100608.64
2019-04-28T02:53:43.266Z,100607.41
2019-04-28T02:56:15.221Z,100608.62
2019-04-28T02:58:47.210Z,100616.50
2019-04-28T03:01:26.056Z,100617.96
2019-04-28T03:03:52.311Z,100611.77
2019-04-28T03:06:24.177Z,100614.80
2019-04-28T03:08:56.154Z,100613.14
2019-04-28T03:11:28.100Z,100615.79
2019-04-28T03:14:00.940Z,100618.41
2019-04-28T03:16:32.447Z,100622.05
2019-04-28T03:19:04.287Z,100620.70
2019-04-28T03:21:36.277Z,100620.20
2019-04-28T03:24:07.613Z,100614.87
2019-04-28T03:27:04.168Z,100621.05
2019-04-28T03:29:40.775Z,100614.89
2019-04-28T03:32:32.606Z,100612.33
2019-04-28T03:34:53.919Z,100605.93
2019-04-28T03:37:24.981Z,100615.24
2019-04-28T03:39:56.996Z,100617.96
2019-04-28T03:42:31.175Z,100614.84
2019-04-28T03:45:04.194Z,100623.13
2019-04-28T03:47:36.136Z,100623.47
2019-04-28T03:50:10.191Z,100637.56
2019-04-28T03:52:41.675Z,100647.92
2019-04-28T03:55:13.735Z,100658.03
2019-04-28T03:57:45.865Z,100658.88
2019-04-28T04:00:17.254Z,100665.00
2019-04-28T04:02:50.755Z,100662.23
2019-04-28T04:05:22.848Z,100662.73
2019-04-28T04:07:54.829Z,100657.14
2019-04-28T04:10:46.536Z,100664.00
2019-04-28T04:13:43.316Z,100659.41
2019-04-28T04:16:45.587Z,100670.20
2019-04-28T04:19:20.175Z,100678.44
2019-04-28T04:21:52.796Z,100684.59
2019-04-28T04:24:25.070Z,100687.59
2019-04-28T04:26:56.927Z,100691.45
2019-04-28T04:29:30.953Z,100688.30
2019-04-28T04:32:13.676Z,100704.59
2019-04-28T04:34:35.575Z,100704.02
2019-04-28T04:37:07.723Z,100705.93
2019-04-28T04:39:40.677Z,100705.64
2019-04-28T04:42:12.724Z,100706.83
2019-04-28T04:44:44.643Z,100701.67
2019-04-28T04:47:16.532Z,100711.42
2019-04-28T04:49:50.447Z,100720.35
2019-04-28T04:52:21.400Z,100720.22
2019-04-28T04:54:53.356Z,100724.18
2019-04-28T04:57:25.262Z,100738.73
2019-04-28T04:59:56.555Z,100741.55
2019-04-28T05:02:52.005Z,100751.19
2019-04-28T05:05:25.279Z,100756.97
2019-04-28T05:07:57.178Z,100763.52
2019-04-28T05:10:30.310Z,100766.92
2019-04-28T05:13:01.934Z,100770.00
2019-04-28T05:15:33.942Z,100769.55
2019-04-28T05:18:05.359Z,100773.81
2019-04-28T05:20:37.145Z,100775.13
2019-04-28T05:23:27.285Z,100773.42
2019-04-28T05:26:03.354Z,100771.25
2019-04-28T05:28:36.941Z,100773.88
2019-04-28T05:31:06.494Z,100770.97
2019-04-28T05:33:39.616Z,100775.03
2019-04-28T05:36:12.316Z,100774.11
2019-04-28T05:38:44.232Z,100765.41
2019-04-28T05:41:16.194Z,100774.19
2019-04-28T05:43:50.451Z,100769.95
2019-04-28T05:46:22.329Z,100772.72
2019-04-28T05:49:06.695Z,100772.86
2019-04-28T05:51:40.296Z,100777.35
2019-04-28T05:54:19.802Z,100773.06
2019-04-28T05:57:10.695Z,100770.64
2019-04-28T05:59:50.525Z,100770.27
2019-04-28T06:02:30.666Z,100772.66
2019-04-28T06:05:04.535Z,100772.63
2019-04-28T06:07:45.042Z,100772.08
2019-04-28T06:10:20.199Z,100771.47
2019-04-28T06:12:51.601Z,100770.21
2019-04-28T06:15:23.606Z,100775.45
2019-04-28T06:17:54.893Z,100782.41
2019-04-28T06:20:26.322Z,100778.28
2019-04-28T06:22:58.562Z,100779.27
2019-04-28T06:25:30.288Z,100778.48
2019-04-28T06:28:03.805Z,100782.11
2019-04-28T06:30:35.910Z,100780.23
2019-04-28T06:33:08.498Z,100779.60
2019-04-28T06:35:40.518Z,100782.37
2019-04-28T06:38:12.418Z,100788.48
2019-04-28T06:40:43.651Z,100789.74
2019-04-28T06:43:15.418Z,100792.95
2019-04-28T06:45:47.346Z,100791.62
2019-04-28T06:48:19.275Z,100800.98
2019-04-28T06:50:51.162Z,100800.48
2019-04-28T06:53:22.525Z,100798.44
2019-04-28T06:55:54.542Z,100796.73
2019-04-28T06:58:26.686Z,100796.05
2019-04-28T07:00:58.414Z,100801.14
2019-04-28T07:03:29.606Z,100800.91
2019-04-28T07:06:01.712Z,100807.51
2019-04-28T07:08:33.973Z,100806.91
2019-04-28T07:11:06.060Z,100811.77
2019-04-28T07:13:38.165Z,100810.02
2019-04-28T07:16:10.362Z,100814.48
2019-04-28T07:18:41.682Z,100815.56
2019-04-28T07:21:29.145Z,100815.19
2019-04-28T07:24:02.792Z,100819.59
2019-04-28T07:26:34.010Z,100831.79
2019-04-28T07:29:05.505Z,100834.27
2019-04-28T07:31:37.411Z,100827.19
2019-04-28T07:34:09.456Z,100834.86
2019-04-28T07:36:41.394Z,100839.34
2019-04-28T07:39:13.425Z,100839.56
2019-04-28T07:41:44.695Z,100837.78
2019-04-28T07:44:15.999Z,100835.44
2019-04-28T07:46:47.225Z,100845.62
2019-04-28T07:49:20.166Z,100845.03
2019-04-28T07:52:02.892Z,100849.83
2019-04-28T07:54:35.057Z,100843.02
2019-04-28T07:57:06.387Z,100846.86
2019-04-28T07:59:38.259Z,100850.59
2019-04-28T08:02:09.634Z,100848.79
2019-04-28T08:04:41.483Z,100865.47
2019-04-28T08:07:13.311Z,100865.11
2019-04-28T08:09:45.359Z,100860.77
2019-04-28T08:12:16.507Z,100871.56
2019-04-28T08:14:48.467Z,100875.14
2019-04-28T08:17:20.729Z,100879.46
2019-04-28T08:19:52.858Z,100874.27
2019-04-28T08:22:24.718Z,100885.18
2019-04-28T08:24:56.569Z,100882.91
2019-04-28T08:27:28.399Z,100885.06
2019-04-28T08:30:03.326Z,100886.41
2019-04-28T08:32:41.509Z,100887.45
2019-04-28T08:35:12.946Z,100877.07
2019-04-28T08:37:44.193Z,100880.23
2019-04-28T08:40:15.540Z,100877.08
2019-04-28T08:42:47.743Z,100878.82
2019-04-28T08:45:19.811Z,100888.06
2019-04-28T08:47:51.961Z,100891.73
2019-04-28T08:50:23.333Z,100892.68
2019-04-28T08:52:56.442Z,100897.59
2019-04-28T08:55:28.561Z,100898.64
2019-04-28T08:58:00.691Z,100901.64
2019-04-28T09:00:33.191Z,100907.86
2019-04-28T09:03:04.647Z,100913.58
2019-04-28T09:05:36.605Z,100915.38
2019-04-28T09:08:08.881Z,100914.98
2019-04-28T09:10:40.821Z,100911.71
2019-04-28T09:13:12.305Z,100923.93
2019-04-28T09:15:44.218Z,100925.85
2019-04-28T09:18:16.143Z,100920.16
2019-04-28T09:20:48.029Z,100928.80
2019-04-28T09:23:20.000Z,100926.62
2019-04-28T09:25:52.033Z,100928.80
2019-04-28T09:28:24.077Z,100932.97
2019-04-28T12:32:41.507Z,100927.06
2019-04-28T12:35:18.376Z,100929.23
2019-04-28T12:37:49.336Z,100930.52
2019-04-28T12:40:22.786Z,100930.28
2019-04-28T12:42:58.869Z,100931.02
2019-04-28T12:45:35.135Z,100931.22
2019-04-28T12:48:03.807Z,100929.93
2019-04-28T12:50:47.731Z,100939.08
2019-04-28T12:53:21.037Z,100933.98
2019-04-28T12:55:56.579Z,100937.17
2019-04-28T12:58:31.931Z,100940.12
2019-04-28T13:01:21.455Z,100945.34
2019-04-28T13:04:21.019Z,100949.52
2019-04-28T13:07:07.143Z,100943.88
2019-04-28T13:09:40.843Z,100949.99
2019-04-28T13:12:12.215Z,100949.80
2019-04-28T13:14:58.864Z,100948.87
2019-04-28T13:17:33.912Z,100945.70
2019-04-28T13:20:07.388Z,100944.73
2019-04-28T13:22:39.391Z,100943.34
2019-04-28T13:25:15.683Z,100937.74
2019-04-28T13:27:47.083Z,100934.37
2019-04-28T13:30:29.628Z,100933.30
2019-04-28T13:36:14.582Z,100933.33
2019-04-28T13:42:31.947Z,100929.33
2019-04-28T13:45:07.645Z,100932.58
2019-04-28T13:47:40.370Z,100930.92
2019-04-28T13:50:40.280Z,100935.65
2019-04-28T13:53:12.549Z,100932.16
2019-04-28T13:56:04.920Z,100925.81
2019-04-28T13:58:41.824Z,100921.92
2019-04-28T14:01:46.098Z,100934.69
2019-04-28T14:04:39.555Z,100934.66
2019-04-28T14:07:12.094Z,100935.80
2019-04-28T14:09:43.511Z,100932.16
2019-04-28T14:12:17.185Z,100926.05
2019-04-28T14:14:49.482Z,100928.33
2019-04-28T14:17:22.961Z,100930.19
2019-04-28T14:19:55.391Z,100942.67
2019-04-28T14:22:27.847Z,100941.39
2019-04-28T14:25:03.139Z,100942.56
2019-04-28T14:27:34.483Z,100947.60
2019-04-28T14:30:09.385Z,100957.43
2019-04-28T14:32:40.477Z,100948.98
2019-04-28T14:35:12.883Z,100952.60
2019-04-28T14:37:44.126Z,100950.30
2019-04-28T14:40:16.981Z,100952.94
2019-04-28T14:42:50.102Z,100952.02
2019-04-28T14:45:21.396Z,100949.75
2019-04-28T14:47:54.475Z,100951.77
2019-04-28T14:50:26.557Z,100953.71
2019-04-28T14:52:58.512Z,100952.72
2019-04-28T14:55:29.685Z,100950.66
2019-04-28T14:58:00.977Z,100953.52
2019-04-28T15:00:38.669Z,100950.48
2019-04-28T15:03:18.551Z,100957.86
2019-04-28T15:06:09.282Z,100955.10
2019-04-28T15:08:55.761Z,100957.05
2019-04-28T15:11:57.385Z,100960.41
2019-04-28T15:14:33.194Z,100953.75
2019-04-28T15:17:08.577Z,100959.33
2019-04-28T15:19:40.695Z,100951.71
2019-04-28T15:22:12.582Z,100962.16
2019-04-28T15:24:47.279Z,100954.64
2019-04-28T15:27:18.513Z,100959.98
2019-04-28T15:29:50.393Z,100956.55
2019-04-28T15:32:24.126Z,100956.70
2019-04-28T15:34:55.957Z,100957.06
2019-04-28T15:37:27.432Z,100958.23
2019-04-28T15:39:59.398Z,100955.02
2019-04-28T15:42:32.262Z,100959.63
2019-04-28T15:45:07.433Z,100958.63
2019-04-28T15:47:39.686Z,100956.64
2019-04-28T15:50:12.114Z,100972.31
2019-04-28T15:52:43.546Z,100968.47
2019-04-28T15:55:18.906Z,100969.63
2019-04-28T15:57:50.299Z,100970.59
2019-04-28T16:00:22.641Z,100967.69
2019-04-28T16:02:55.985Z,100969.19
2019-04-28T16:05:27.335Z,100964.61
2019-04-28T16:07:59.450Z,100967.73
2019-04-28T16:10:32.228Z,100964.87
2019-04-28T16:13:06.421Z,100970.33
2019-04-28T16:15:38.163Z,100971.38
2019-04-28T16:18:21.574Z,100974.26
2019-04-28T16:20:44.260Z,100967.98
2019-04-28T16:23:16.545Z,100973.34
2019-04-28T16:25:51.391Z,100977.11
2019-04-28T16:28:22.785Z,100971.00
2019-04-28T16:30:54.745Z,100979.41
2019-04-28T16:33:26.738Z,100985.83
2019-04-28T16:36:01.079Z,100978.94
2019-04-28T16:38:33.339Z,100974.53
2019-04-28T16:41:09.397Z,100973.05
2019-04-28T16:43:47.190Z,100974.16
2019-04-28T16:46:22.514Z,100973.17
2019-04-28T16:48:55.379Z,100977.89
2019-04-28T16:51:27.228Z,100975.83
2019-04-28T16:54:01.414Z,100981.94
2019-04-28T16:57:11.104Z,100981.97
2019-04-28T17:00:07.917Z,100979.27
2019-04-28T17:02:43.983Z,100985.44
2019-04-28T17:05:17.127Z,100979.13
2019-04-28T17:07:53.492Z,100979.51
2019-04-28T17:10:37.875Z,100980.66
2019-04-28T17:13:08.401Z,100981.34
2019-04-28T17:15:43.131Z,100984.08
2019-04-28T17:18:17.625Z,100990.05
2019-04-28T17:20:48.845Z,100989.16
2019-04-28T17:23:20.925Z,100984.83
2019-04-28T17:25:52.831Z,100992.70
2019-04-28T17:28:24.145Z,100996.81
2019-04-28T17:31:00.335Z,100999.40
2019-04-28T17:33:33.041Z,101000.13
2019-04-28T17:36:16.659Z,100998.63
2019-04-28T17:38:53.459Z,100998.64
2019-04-28T17:41:33.361Z,101005.00
2019-04-28T17:44:06.119Z,101008.86
2019-04-28T17:46:39.825Z,101016.13
2019-04-28T17:49:21.798Z,101013.72
2019-04-28T17:51:53.905Z,101019.09
2019-04-28T17:54:28.398Z,101019.62
2019-04-28T17:57:06.386Z,101026.48
2019-04-28T17:59:56.089Z,101026.02
2019-04-28T18:02:46.881Z,101026.63
2019-04-28T18:05:39.017Z,101025.30
2019-04-28T18:08:20.822Z,101031.44
2019-04-28T18:10:46.567Z,101036.41
2019-04-28T18:13:27.780Z,101042.34
2019-04-28T18:16:24.013Z,101044.55
2019-04-28T18:19:05.830Z,101042.09
2019-04-28T18:22:12.323Z,101047.63
2019-04-28T18:33:26.536Z,101055.00
2019-04-28T18:36:00.661Z,101064.84
2019-04-28T18:38:40.257Z,101059.71
2019-04-28T18:41:33.774Z,101066.95
2019-04-28T18:44:19.006Z,101065.13
2019-04-28T18:46:51.157Z,101067.83
2019-04-28T18:49:22.638Z,101065.25
2019-04-28T18:51:54.519Z,101064.56
2019-04-28T18:54:28.464Z,101063.63
2019-04-28T18:57:03.476Z,101062.75
2019-04-28T18:59:37.581Z,101065.46
2019-04-28T19:02:26.040Z,101072.19
2019-04-28T19:05:10.536Z,101068.27
2019-04-28T19:08:04.485Z,101071.37
2019-04-28T19:11:17.695Z,101067.05
2019-04-28T19:14:03.639Z,101066.73
2019-04-28T19:20:15.949Z,101075.21
2019-04-28T19:22:48.150Z,101081.42
2019-04-28T19:25:30.802Z,101085.43
2019-04-28T19:28:12.902Z,101088.64
2019-04-28T19:30:49.540Z,101085.53
2019-04-28T19:34:15.422Z,101082.97
2019-04-28T19:36:56.361Z,101080.48
2019-04-28T19:42:33.628Z,101085.91
2019-04-28T19:45:07.855Z,101085.45
2019-04-28T19:48:02.771Z,101087.25
2019-04-28T19:51:31.058Z,101090.86
2019-04-28T19:54:04.372Z,101088.74
2019-04-28T19:56:49.010Z,101090.13
2019-04-28T19:59:27.639Z,101088.42
2019-04-28T20:02:04.534Z,101091.06
2019-04-28T20:04:41.724Z,101088.02
2019-04-28T20:07:15.421Z,101091.19
2019-04-28T20:09:54.352Z,101093.88
2019-04-28T20:12:25.977Z,101092.59
2019-04-28T20:15:01.044Z,101090.86
2019-04-28T20:17:37.225Z,101094.37
2019-04-28T20:20:19.212Z,101088.55
2019-04-28T20:22:52.526Z,101085.92
2019-04-28T20:25:26.580Z,101083.61
2019-04-28T20:27:58.337Z,101083.67
2019-04-28T20:30:33.487Z,101082.69
2019-04-28T20:33:08.312Z,101090.98
2019-04-28T20:35:48.683Z,101088.36
2019-04-28T20:38:46.368Z,101094.18
2019-04-28T20:41:33.799Z,101096.90
2019-04-28T20:44:09.435Z,101099.14
2019-04-28T20:46:45.095Z,101100.05
2019-04-28T20:49:20.577Z,101099.23
2019-04-28T20:51:54.411Z,101099.26
2019-04-28T20:54:26.422Z,101100.48
2019-04-28T20:56:58.123Z,101104.02
2019-04-28T20:59:30.532Z,101098.83
2019-04-28T21:02:02.992Z,101098.02
2019-04-28T21:04:35.374Z,101103.30
2019-04-28T21:07:07.217Z,101099.70
2019-04-28T21:09:39.485Z,101103.66
2019-04-28T21:12:11.106Z,101047.10
2019-04-28T21:14:42.804Z,101094.72
2019-04-28T21:17:15.383Z,101082.84
2019-04-28T21:19:47.551Z,101088.48
2019-04-28T21:22:19.802Z,101088.37
2019-04-28T21:24:51.365Z,101091.09
2019-04-28T21:27:22.688Z,101086.22
2019-04-28T21:29:54.355Z,101085.66
2019-04-28T21:32:28.357Z,101083.52
2019-04-28T21:34:59.807Z,101080.06
2019-04-28T21:37:31.195Z,101078.64
2019-04-28T21:40:02.512Z,101081.81
2019-04-28T21:43:04.464Z,101075.64
2019-04-28T21:46:13.506Z,101074.75
2019-04-28T21:48:53.045Z,101073.01
2019-04-28T21:51:24.311Z,101080.64
2019-04-28T21:53:56.332Z,101084.25
2019-04-28T21:56:28.676Z,101089.11
2019-04-28T21:59:01.363Z,101087.81
2019-04-28T22:01:32.715Z,101095.28
2019-04-28T22:04:05.213Z,101096.42
2019-04-28T22:06:48.931Z,101092.88
2019-04-28T22:09:20.643Z,101088.36
2019-04-28T22:11:52.437Z,101086.23
2019-04-28T22:14:27.827Z,101083.49
2019-04-28T22:17:00.915Z,101086.59
2019-04-28T22:19:32.458Z,101084.81
2019-04-28T22:22:05.859Z,101089.99
2019-04-28T22:25:18.351Z,101091.73
2019-04-28T22:27:50.396Z,101087.87
2019-04-28T22:30:21.806Z,101081.27
2019-04-28T22:32:55.611Z,101088.74
2019-04-28T22:35:27.062Z,101088.78
2019-04-28T22:37:59.375Z,101082.08
2019-04-28T22:40:31.840Z,101084.59
2019-04-28T22:43:03.395Z,101082.45
2019-04-28T22:45:35.555Z,101080.36
2019-04-28T22:48:08.865Z,101083.02
2019-04-28T22:50:45.413Z,101086.98
2019-04-28T22:53:20.051Z,101080.80
2019-04-28T22:56:02.316Z,101081.19
2019-04-28T22:58:50.223Z,101076.78
2019-04-28T23:01:34.149Z,101077.63
2019-04-28T23:04:28.770Z,101078.11
2019-04-28T23:07:01.350Z,101087.36
2019-04-28T23:09:34.008Z,101084.17
2019-04-28T23:12:08.349Z,101079.03
2019-04-28T23:14:39.843Z,101079.49
2019-04-28T23:17:14.910Z,101080.31
2019-04-28T23:19:46.510Z,101075.89
2019-04-28T23:22:27.777Z,101072.09
2019-04-28T23:25:00.129Z,101069.02
2019-04-28T23:27:32.646Z,101063.67
2019-04-28T23:30:05.158Z,101069.83
2019-04-28T23:32:37.910Z,101065.86
2019-04-28T23:35:10.832Z,101065.32
2019-04-28T23:37:43.141Z,101062.34
2019-04-28T23:40:16.879Z,101062.32
2019-04-28T23:42:53.938Z,101057.86
2019-04-28T23:45:26.238Z,101067.48
2019-04-28T23:48:03.656Z,101057.30
2019-04-28T23:50:45.705Z,101058.66
2019-04-28T23:53:23.462Z,101064.52
2019-04-28T23:55:54.853Z,101062.77
2019-04-28T23:58:27.398Z,101053.95
